Port Moresby Jacksons International Airport
AYPY : rendu visible

Aérodrome :











RETROUVEZ-NOUS SUR...

 
LOGIN :

S'inscrire | Disclaimer

   EN    FR    IT 

 









Légende :    VFR   VFR Marginal   IFR   IFR Intensif   IFR Très Intensif
Visi : 
Plafond : 
>= 8 km
>= 3000ft
5 à 8 km
1000 à 3000 ft
1500m à 5 km
500 à 1000 ft
800 à 1500m
200 à 500 ft
< 800m
< 200 ft
Symboles :   Orages  Brouillard  Fortes neiges  Fortes précipitations  Vent > 20 kt






- Altitude de l'aérodrome : 146 ft
- Code IATA : POM


AYPY - Port Moresby Jacksons International

DERNIER METAR :
  • 020200Z 17015KT 9999 HZ SCT025 BKN040 28/24 Q1012

METARs EXPIRÉS :
  • 020100Z 16010G20KT 9999 HZ FEW020 BKN040 29/24 Q1013
  • 020000Z 16015KT 9999 HZ SCT030 SCT050 30/24 Q1013

TAF TAF AYPY
Valide du 02 à 00h jusqu'au 03 à 00h UTC


012202Z 0200/0224 16015KT 9999 SCT018
FIR AYPM / Océanie



MET'MAP, la Météo Aéronautique d'un coup d'oeil ! - Copyright ORBIFLY Décembre 2007 - Disclaimer

ORBIFLY MET'MAP TEAM :

Programmation & Développement : Alexandra Zaïnal
Sur une idée originale de : Baudouin d'Aumeries
Assistance à la programmation : Marc-Olivier Méhu
Soutien technique & logistique : Manuel Goepfert

Contact : metmap@orbifly.com




SOURCES & CREDITS :

   NOAA       Earth
Advisory